Time;durP1;ratioP1;P1;durP2;ratioP2;P2;SDS_P1;SDS_P2;PMS_P1;PMS_P2;Temp;Humidity;BMP_temperature;BMP_pressure;BME280_temperature;BME280_humidity;BME280_pressure;Samples;Min_cycle;Max_cycle;Signal;HPM_P1;HPM_P2
2021/12/06 00:02:25;;;;;;;37.78;18.90;;;;;;;0.79;100.00;99339.81;6717059;26;34272;-69
2021/12/06 00:05:29;;;;;;;38.13;19.10;;;;;;;0.75;100.00;99329.78;6716986;26;34048;-70
2021/12/06 00:08:32;;;;;;;35.15;18.17;;;;;;;0.78;100.00;99348.59;6716660;26;33869;-69
2021/12/06 00:11:35;;;;;;;36.22;18.23;;;;;;;0.86;100.00;99366.22;6717080;26;34090;-70
2021/12/06 00:14:40;;;;;;;35.25;19.92;;;;;;;0.74;100.00;99369.88;6716940;26;34482;-69
2021/12/06 00:17:43;;;;;;;34.65;16.98;;;;;;;0.74;100.00;99380.31;6696972;26;34874;-69
2021/12/06 00:20:46;;;;;;;31.20;16.25;;;;;;;0.80;100.00;99372.81;6717029;26;33678;-70
2021/12/06 00:23:49;;;;;;;32.40;17.42;;;;;;;0.77;100.00;99378.28;6716859;26;34328;-70
2021/12/06 00:26:52;;;;;;;32.05;16.08;;;;;;;0.78;100.00;99379.94;6717049;26;34543;-69
2021/12/06 00:29:55;;;;;;;28.12;15.00;;;;;;;0.94;100.00;99382.06;6717223;26;34055;-69
2021/12/06 00:32:58;;;;;;;31.67;16.87;;;;;;;0.86;100.00;99369.69;6717400;26;34382;-70
2021/12/06 00:36:05;;;;;;;34.38;16.83;;;;;;;0.84;100.00;99366.34;6697018;26;34386;-71
2021/12/06 00:39:13;;;;;;;31.12;16.37;;;;;;;0.76;100.00;99370.59;6717010;26;34055;-69
2021/12/06 00:42:18;;;;;;;32.92;17.83;;;;;;;0.74;100.00;99383.75;6716917;26;33871;-70
2021/12/06 00:45:22;;;;;;;29.50;16.60;;;;;;;0.69;100.00;99374.66;6697366;26;34563;-71
2021/12/06 00:48:24;;;;;;;33.00;16.42;;;;;;;0.72;100.00;99377.03;6716693;26;34293;-71
2021/12/06 00:51:27;;;;;;;30.08;17.17;;;;;;;0.76;100.00;99375.81;6717181;26;33926;-70
2021/12/06 00:54:34;;;;;;;31.08;16.20;;;;;;;0.77;100.00;99375.69;6716835;26;34461;-70
2021/12/06 00:57:40;;;;;;;28.92;15.27;;;;;;;0.85;100.00;99383.69;6716727;26;33914;-70
2021/12/06 01:00:46;;;;;;;27.02;15.90;;;;;;;0.86;100.00;99393.16;6696962;26;34022;-72
2021/12/06 01:03:50;;;;;;;31.27;16.98;;;;;;;0.76;100.00;99391.47;6696867;26;34311;-70
2021/12/06 01:06:53;;;;;;;28.27;15.63;;;;;;;0.87;100.00;99379.12;6716570;26;34679;-72
2021/12/06 01:09:56;;;;;;;28.40;14.60;;;;;;;0.91;100.00;99387.56;6716454;26;34048;-72
2021/12/06 01:12:59;;;;;;;27.77;14.63;;;;;;;0.79;100.00;99393.81;6696598;26;33968;-72
2021/12/06 01:16:03;;;;;;;29.30;14.70;;;;;;;0.74;100.00;99401.19;6716526;26;34059;-71
2021/12/06 01:19:06;;;;;;;28.75;15.20;;;;;;;0.74;100.00;99388.16;6716589;26;34303;-72
2021/12/06 01:22:20;;;;;;;29.60;15.02;;;;;;;0.69;100.00;99385.09;6698388;26;33914;-73
2021/12/06 01:29:02;;;;;;;26.60;15.50;;;;;;;0.75;100.00;99364.53;6717854;26;34074;-71
2021/12/06 01:32:12;;;;;;;27.70;15.05;;;;;;;0.72;100.00;99356.97;6717356;26;33917;-71
2021/12/06 01:42:02;;;;;;;27.98;14.60;;;;;;;0.81;100.00;99371.03;6717626;26;33955;-71
2021/12/06 01:45:07;;;;;;;24.80;14.55;;;;;;;0.86;100.00;99356.62;6718091;26;34100;-72
2021/12/06 01:48:10;;;;;;;25.40;14.43;;;;;;;0.86;100.00;99356.62;6698373;26;34596;-72
2021/12/06 01:51:13;;;;;;;29.70;15.70;;;;;;;0.80;100.00;99358.91;6717644;26;34123;-72
2021/12/06 01:54:16;;;;;;;28.35;15.43;;;;;;;0.80;100.00;99354.53;6698359;26;33719;-72
2021/12/06 01:57:21;;;;;;;27.23;15.55;;;;;;;0.81;100.00;99360.56;6718136;26;34685;-72
2021/12/06 02:00:44;;;;;;;26.77;14.93;;;;;;;0.83;100.00;99359.47;6718258;26;33688;-72
2021/12/06 02:03:48;;;;;;;26.30;16.08;;;;;;;0.91;100.00;99368.44;6718067;26;32920;-73
2021/12/06 02:06:51;;;;;;;28.73;16.33;;;;;;;0.97;100.00;99365.31;6718040;26;34686;-74
2021/12/06 02:09:56;;;;;;;27.67;15.48;;;;;;;0.98;100.00;99370.38;6698216;26;34559;-72
2021/12/06 02:13:00;;;;;;;29.70;15.73;;;;;;;1.08;100.00;99375.66;6698147;26;34008;-72
2021/12/06 02:16:04;;;;;;;27.10;16.08;;;;;;;1.11;100.00;99373.63;6718070;26;34466;-72
2021/12/06 02:19:08;;;;;;;28.15;16.08;;;;;;;1.03;100.00;99359.56;6717646;26;34003;-72
2021/12/06 02:22:16;;;;;;;30.10;15.98;;;;;;;1.09;100.00;99354.63;6698177;26;34856;-72
2021/12/06 02:25:20;;;;;;;27.15;14.52;;;;;;;1.09;100.00;99340.75;6717503;26;34056;-72
2021/12/06 02:28:23;;;;;;;34.20;17.15;;;;;;;1.02;100.00;99331.78;6717498;26;34424;-72
2021/12/06 02:31:27;;;;;;;30.00;16.50;;;;;;;0.94;100.00;99326.41;6717333;26;34103;-72
2021/12/06 02:34:30;;;;;;;27.60;14.90;;;;;;;0.99;100.00;99330.28;6717523;26;34297;-72
2021/12/06 02:37:34;;;;;;;31.50;17.48;;;;;;;1.06;100.00;99354.09;6691092;26;150836;-72
2021/12/06 02:40:40;;;;;;;29.77;15.27;;;;;;;1.12;100.00;99341.28;6716608;26;33975;-72
2021/12/06 02:43:43;;;;;;;31.15;16.98;;;;;;;1.06;100.00;99341.03;6717533;26;34668;-72
2021/12/06 02:46:46;;;;;;;32.45;18.40;;;;;;;1.08;100.00;99349.53;6717772;26;33929;-72
2021/12/06 02:49:50;;;;;;;31.00;15.98;;;;;;;1.07;100.00;99340.88;6717680;26;34048;-73
2021/12/06 02:52:55;;;;;;;26.45;14.75;;;;;;;1.05;100.00;99348.03;6717307;26;34204;-71
2021/12/06 02:56:04;;;;;;;28.20;15.05;;;;;;;1.20;100.00;99343.25;6717391;26;33938;-72
2021/12/06 02:59:10;;;;;;;28.92;15.85;;;;;;;1.23;100.00;99349.03;6717462;26;33966;-71
2021/12/06 03:02:19;;;;;;;28.75;16.45;;;;;;;1.18;100.00;99353.84;6698107;26;34177;-71
2021/12/06 03:05:22;;;;;;;26.80;15.23;;;;;;;1.08;100.00;99368.66;6717300;26;34534;-71
2021/12/06 03:08:45;;;;;;;28.00;15.38;;;;;;;1.09;100.00;99367.69;6697606;26;33854;-71
2021/12/06 03:12:01;;;;;;;28.15;15.65;;;;;;;1.01;100.00;99372.75;6717362;26;35093;-73
2021/12/06 03:15:05;;;;;;;26.12;15.23;;;;;;;1.01;100.00;99367.53;6717145;26;33931;-71
2021/12/06 03:18:08;;;;;;;30.33;16.60;;;;;;;1.00;100.00;99380.72;6717758;26;33984;-72
2021/12/06 03:21:11;;;;;;;28.12;15.13;;;;;;;1.09;100.00;99374.69;6717552;26;34452;-72
2021/12/06 03:24:14;;;;;;;25.15;14.25;;;;;;;1.05;100.00;99366.31;6717473;26;34049;-72
2021/12/06 03:27:18;;;;;;;27.85;14.10;;;;;;;1.06;100.00;99370.56;6717724;26;34373;-72
2021/12/06 03:30:24;;;;;;;25.52;13.98;;;;;;;1.01;100.00;99356.25;6717796;26;33754;-72
2021/12/06 03:33:27;;;;;;;27.80;14.52;;;;;;;1.01;100.00;99366.72;6717411;26;33785;-72
2021/12/06 03:36:32;;;;;;;28.00;15.77;;;;;;;1.02;100.00;99369.16;6697775;26;34749;-72
2021/12/06 03:39:43;;;;;;;25.98;15.15;;;;;;;0.92;100.00;99372.72;6717331;26;34116;-73
2021/12/06 03:42:47;;;;;;;27.10;16.25;;;;;;;0.91;100.00;99386.72;6716725;26;33787;-72
2021/12/06 03:45:51;;;;;;;24.50;15.00;;;;;;;0.90;100.00;99385.91;6697935;26;34498;-72
2021/12/06 03:48:54;;;;;;;22.52;13.85;;;;;;;0.94;100.00;99389.91;6717663;26;34370;-71
2021/12/06 03:51:57;;;;;;;23.05;13.70;;;;;;;0.86;100.00;99395.78;6697673;26;34437;-72
2021/12/06 03:55:00;;;;;;;23.08;13.80;;;;;;;0.84;100.00;99392.47;6717099;26;34667;-70
2021/12/06 03:58:04;;;;;;;21.95;13.38;;;;;;;0.79;100.00;99384.19;6717046;26;34083;-72
2021/12/06 04:01:07;;;;;;;22.80;13.52;;;;;;;0.74;100.00;99383.75;6697845;26;34181;-71
2021/12/06 04:04:11;;;;;;;21.10;11.55;;;;;;;0.75;100.00;99371.53;6717699;26;33779;-71
2021/12/06 04:07:14;;;;;;;18.70;11.12;;;;;;;0.77;100.00;99370.47;6717166;26;33268;-72
2021/12/06 04:10:17;;;;;;;19.42;11.00;;;;;;;0.83;100.00;99375.13;6717491;26;34702;-72
2021/12/06 04:13:20;;;;;;;18.92;11.40;;;;;;;0.78;100.00;99381.69;6697252;26;33915;-71
2021/12/06 04:16:25;;;;;;;19.35;11.35;;;;;;;0.78;100.00;99385.16;6717521;26;33726;-73
2021/12/06 04:19:28;;;;;;;16.98;10.75;;;;;;;0.60;100.00;99376.25;6697730;26;34362;-74
2021/12/06 04:22:32;;;;;;;16.95;10.45;;;;;;;0.69;100.00;99372.03;6717247;26;34140;-73
2021/12/06 04:25:36;;;;;;;14.82;10.02;;;;;;;0.75;100.00;99381.97;6717289;26;34173;-73
2021/12/06 04:28:43;;;;;;;17.20;8.75;;;;;;;0.63;100.00;99381.22;6717059;26;33845;-73
2021/12/06 04:31:52;;;;;;;14.15;9.35;;;;;;;0.53;100.00;99395.19;6717185;26;33865;-73
2021/12/06 04:34:56;;;;;;;13.98;8.45;;;;;;;0.56;100.00;99387.09;6717109;26;34421;-74
2021/12/06 04:37:59;;;;;;;13.98;8.88;;;;;;;0.65;100.00;99381.94;6717156;26;34622;-72
2021/12/06 04:41:03;;;;;;;11.55;8.20;;;;;;;0.63;100.00;99378.59;6717426;26;34475;-72
2021/12/06 04:44:06;;;;;;;12.73;8.20;;;;;;;0.56;100.00;99387.91;6717315;26;34196;-72
2021/12/06 04:47:10;;;;;;;14.07;8.40;;;;;;;0.69;100.00;99388.53;6716734;26;33815;-72
2021/12/06 04:50:14;;;;;;;11.40;7.97;;;;;;;0.63;100.00;99402.09;6716822;26;34635;-72
2021/12/06 04:53:27;;;;;;;11.90;7.80;;;;;;;0.66;100.00;99404.47;6716921;26;35147;-71
2021/12/06 04:56:38;;;;;;;11.73;7.97;;;;;;;0.58;100.00;99404.25;6698720;26;34294;-72
2021/12/06 04:59:46;;;;;;;11.80;8.37;;;;;;;0.49;100.00;99412.03;6717938;26;34115;-71
2021/12/06 05:02:49;;;;;;;11.63;8.00;;;;;;;0.57;100.00;99412.25;6698465;26;34480;-72
2021/12/06 05:05:59;;;;;;;10.52;7.72;;;;;;;0.56;100.00;99411.41;6698167;26;33943;-72
2021/12/06 05:09:09;;;;;;;11.70;7.50;;;;;;;0.68;100.00;99418.19;6717964;26;34028;-72
2021/12/06 05:12:13;;;;;;;;;;;;;;;0.58;100.00;99430.34;6718208;26;33817;-72
2021/12/06 05:15:16;;;;;;;9.32;6.85;;;;;;;0.64;100.00;99429.84;6717827;26;34638;-71
2021/12/06 05:18:21;;;;;;;10.82;7.53;;;;;;;0.63;100.00;99443.06;6718224;26;33929;-71
2021/12/06 05:21:25;;;;;;;11.88;7.75;;;;;;;0.64;100.00;99434.25;6698570;26;34078;-72
2021/12/06 05:24:28;;;;;;;10.93;7.32;;;;;;;0.55;100.00;99443.66;6698317;26;34085;-72
2021/12/06 05:27:31;;;;;;;11.65;7.90;;;;;;;0.61;100.00;99445.78;6717316;26;34883;-72
2021/12/06 05:30:37;;;;;;;11.02;7.57;;;;;;;0.58;100.00;99447.81;6698418;26;33868;-72
2021/12/06 05:33:42;;;;;;;12.27;7.78;;;;;;;0.53;100.00;99456.03;6698013;26;34627;-71
2021/12/06 05:36:45;;;;;;;12.98;8.65;;;;;;;0.60;100.00;99462.38;6717649;26;34210;-71
2021/12/06 05:39:48;;;;;;;13.02;9.40;;;;;;;0.59;100.00;99459.91;6717966;26;33881;-71
2021/12/06 05:42:53;;;;;;;15.48;10.25;;;;;;;0.48;100.00;99463.41;6698089;26;33932;-71
2021/12/06 05:45:56;;;;;;;15.35;9.45;;;;;;;0.56;100.00;99455.78;6717167;26;35311;-70
2021/12/06 05:48:59;;;;;;;15.38;9.70;;;;;;;0.58;100.00;99451.22;6717963;26;33777;-71
2021/12/06 05:52:03;;;;;;;14.80;9.38;;;;;;;0.57;100.00;99456.59;6717644;26;34443;-71
2021/12/06 05:55:08;;;;;;;15.80;8.88;;;;;;;0.57;100.00;99454.00;6717837;26;35517;-70
2021/12/06 05:58:18;;;;;;;16.90;10.25;;;;;;;0.58;100.00;99459.06;6717447;26;34940;-70
2021/12/06 06:01:24;;;;;;;16.92;10.50;;;;;;;0.57;100.00;99460.03;6717646;26;34262;-71
2021/12/06 06:04:27;;;;;;;17.65;10.25;;;;;;;0.50;100.00;99458.06;6717373;26;35293;-73
2021/12/06 06:07:30;;;;;;;23.02;11.40;;;;;;;0.50;100.00;99458.88;6717585;26;33821;-71
2021/12/06 06:10:33;;;;;;;17.45;10.90;;;;;;;0.46;100.00;99460.09;6697144;26;33698;-71
2021/12/06 06:13:36;;;;;;;18.37;11.60;;;;;;;0.56;100.00;99454.94;6717707;26;33708;-71
2021/12/06 06:16:47;;;;;;;19.62;12.60;;;;;;;0.49;100.00;99467.66;6716976;26;33747;-73
2021/12/06 06:19:54;;;;;;;19.37;11.98;;;;;;;0.52;100.00;99474.41;6716703;26;34613;-72
2021/12/06 06:22:57;;;;;;;20.00;11.98;;;;;;;0.54;100.00;99480.31;6717751;26;34034;-72
2021/12/06 06:26:00;;;;;;;19.52;12.27;;;;;;;0.55;100.00;99490.66;6716362;26;35066;-71
2021/12/06 06:29:03;;;;;;;21.15;13.20;;;;;;;0.73;100.00;99493.50;6716621;26;34002;-71
2021/12/06 06:32:07;;;;;;;20.35;11.93;;;;;;;0.80;100.00;99499.88;6717293;26;33979;-71
2021/12/06 06:35:11;;;;;;;22.55;12.00;;;;;;;0.74;100.00;99498.63;6696518;26;33949;-71
2021/12/06 06:38:14;;;;;;;21.77;12.32;;;;;;;0.72;100.00;99492.72;6716895;26;34703;-71
2021/12/06 06:41:17;;;;;;;23.48;12.20;;;;;;;0.67;100.00;99497.47;6716663;26;33868;-71
2021/12/06 06:44:20;;;;;;;22.33;12.25;;;;;;;0.76;100.00;99501.09;6716225;26;33975;-71
2021/12/06 06:47:23;;;;;;;22.85;13.35;;;;;;;0.75;100.00;99509.88;6716165;26;34135;-71
2021/12/06 06:50:26;;;;;;;20.90;12.65;;;;;;;0.63;100.00;99508.31;6715445;26;34562;-70
2021/12/06 06:53:30;;;;;;;21.85;12.32;;;;;;;0.81;100.00;99519.84;6695114;26;33977;-71
2021/12/06 06:56:34;;;;;;;21.62;12.23;;;;;;;0.93;100.00;99521.41;6712710;26;34400;-70
2021/12/06 06:59:38;;;;;;;20.42;11.85;;;;;;;0.95;100.00;99522.13;6714863;26;34033;-72
2021/12/06 07:02:41;;;;;;;21.00;11.45;;;;;;;0.87;100.00;99530.56;6716765;26;34689;-71
2021/12/06 07:05:44;;;;;;;21.27;12.45;;;;;;;0.98;100.00;99534.91;6716277;26;34079;-70
2021/12/06 07:08:47;;;;;;;21.27;11.57;;;;;;;0.95;100.00;99547.41;6696582;26;35222;-71
2021/12/06 07:11:51;;;;;;;21.65;12.95;;;;;;;0.99;100.00;99556.63;6715668;26;34689;-70
2021/12/06 07:14:54;;;;;;;21.98;12.27;;;;;;;1.02;100.00;99541.53;6715418;26;33955;-71
2021/12/06 07:17:57;;;;;;;19.95;12.57;;;;;;;1.07;100.00;99556.81;6714893;26;34314;-70
2021/12/06 07:21:00;;;;;;;19.77;12.27;;;;;;;1.10;100.00;99557.41;6715039;26;34200;-70
2021/12/06 07:24:04;;;;;;;19.80;12.00;;;;;;;1.05;100.00;99556.97;6715592;26;34425;-71
2021/12/06 07:27:07;;;;;;;19.75;11.77;;;;;;;1.12;100.00;99571.16;6694675;26;35072;-70
2021/12/06 07:30:12;;;;;;;23.62;11.45;;;;;;;1.26;100.00;99575.22;6713885;26;34250;-70
2021/12/06 07:33:15;;;;;;;20.30;11.80;;;;;;;1.28;100.00;99575.94;6693558;26;33768;-70
2021/12/06 07:36:20;;;;;;;20.25;11.90;;;;;;;1.27;100.00;99584.72;6714328;26;34031;-70
2021/12/06 07:39:22;;;;;;;21.60;12.18;;;;;;;1.27;100.00;99574.28;6714965;26;34066;-69
2021/12/06 07:42:25;;;;;;;19.52;10.65;;;;;;;1.14;100.00;99579.72;6695712;26;34268;-72
2021/12/06 07:45:28;;;;;;;22.15;11.95;;;;;;;1.20;100.00;99570.53;6715796;26;34599;-70
2021/12/06 07:48:31;;;;;;;17.42;11.48;;;;;;;1.30;100.00;99571.44;6716654;26;35643;-69
2021/12/06 07:51:34;;;;;;;21.50;11.45;;;;;;;1.42;100.00;99574.78;6716667;26;33897;-71
2021/12/06 07:54:38;;;;;;;21.77;11.55;;;;;;;1.34;100.00;99580.66;6716801;26;33746;-71
2021/12/06 07:57:41;;;;;;;23.58;13.15;;;;;;;1.34;100.00;99585.06;6716505;26;34052;-71
2021/12/06 08:00:47;;;;;;;25.52;14.50;;;;;;;1.34;100.00;99590.28;6716851;26;35383;-70
2021/12/06 08:03:50;;;;;;;26.37;14.73;;;;;;;1.28;100.00;99584.59;6696926;26;34736;-70
2021/12/06 08:06:53;;;;;;;27.77;15.18;;;;;;;1.15;100.00;99585.75;6716364;26;34013;-71
2021/12/06 08:09:56;;;;;;;28.35;15.32;;;;;;;1.19;100.00;99590.59;6696738;26;34130;-70
2021/12/06 08:12:58;;;;;;;29.73;15.30;;;;;;;1.26;100.00;99586.50;6696927;26;33882;-70
2021/12/06 08:16:08;;;;;;;28.80;15.27;;;;;;;1.26;100.00;99588.28;6716977;26;35280;-70
2021/12/06 08:19:11;;;;;;;29.40;16.17;;;;;;;1.33;100.00;99592.06;6716723;26;34742;-69
2021/12/06 08:22:14;;;;;;;31.42;16.02;;;;;;;1.41;100.00;99596.63;6696971;26;33990;-69
2021/12/06 08:25:19;;;;;;;29.12;15.15;;;;;;;1.16;100.00;99593.44;6716844;26;33954;-70
2021/12/06 08:28:24;;;;;;;33.85;16.67;;;;;;;1.25;100.00;99597.94;6696677;26;34526;-70
2021/12/06 08:31:29;;;;;;;36.92;18.30;;;;;;;1.25;100.00;99599.72;6696624;26;34959;-72
2021/12/06 08:34:32;;;;;;;34.33;18.45;;;;;;;1.33;100.00;99614.75;6716791;26;34346;-70
2021/12/06 08:37:36;;;;;;;31.87;17.20;;;;;;;1.31;100.00;99612.25;6716429;26;34668;-70
2021/12/06 08:40:41;;;;;;;39.20;17.95;;;;;;;1.19;100.00;99608.88;6716462;26;34021;-70
2021/12/06 08:43:45;;;;;;;39.80;19.80;;;;;;;1.27;100.00;99609.06;6716739;26;33763;-70
2021/12/06 08:46:48;;;;;;;38.47;19.30;;;;;;;1.30;100.00;99616.69;6696771;26;34113;-70
2021/12/06 08:49:51;;;;;;;39.65;20.10;;;;;;;1.39;100.00;99616.84;6716750;26;34065;-70
2021/12/06 08:52:56;;;;;;;39.78;20.45;;;;;;;1.35;100.00;99611.06;6716706;26;34445;-69
2021/12/06 08:55:58;;;;;;;41.60;20.45;;;;;;;1.42;100.00;99622.63;6716708;26;33920;-70
2021/12/06 08:59:01;;;;;;;37.22;19.50;;;;;;;1.27;100.00;99616.91;6697016;26;34037;-70
2021/12/06 09:02:05;;;;;;;42.83;21.37;;;;;;;1.33;100.00;99620.81;6716361;26;33934;-70
2021/12/06 09:05:35;;;;;;;42.97;21.35;;;;;;;1.41;100.00;99620.97;6716243;26;33863;-70
2021/12/06 09:08:40;;;;;;;42.05;21.37;;;;;;;1.43;100.00;99624.31;6716210;26;34456;-70
2021/12/06 09:11:45;;;;;;;42.78;21.58;;;;;;;1.44;100.00;99617.28;6716336;26;34147;-70
2021/12/06 09:14:48;;;;;;;39.90;19.30;;;;;;;1.56;100.00;99621.47;6716489;26;34172;-69
2021/12/06 09:17:53;;;;;;;37.78;19.00;;;;;;;1.48;100.00;99624.75;6716547;26;35034;-70
2021/12/06 09:20:57;;;;;;;36.72;19.40;;;;;;;1.62;100.00;99611.34;6715919;26;34015;-70
2021/12/06 09:24:06;;;;;;;35.20;19.00;;;;;;;1.63;100.00;99614.78;6678447;26;34147;-71
2021/12/06 09:27:10;;;;;;;39.85;19.65;;;;;;;1.49;100.00;99612.50;6716107;26;34555;-71
2021/12/06 09:30:19;;;;;;;33.70;19.33;;;;;;;1.60;100.00;99602.78;6716172;26;34071;-71
2021/12/06 09:33:22;;;;;;;36.65;19.52;;;;;;;1.96;100.00;99585.75;6715834;26;34904;-69
2021/12/06 09:36:25;;;;;;;38.83;18.55;;;;;;;2.00;100.00;99596.78;6716039;26;34050;-69
2021/12/06 09:39:28;;;;;;;31.98;17.55;;;;;;;2.10;100.00;99582.78;6716040;26;34570;-69
2021/12/06 09:42:33;;;;;;;36.72;18.08;;;;;;;2.06;100.00;99589.22;6716998;26;34561;-68
2021/12/06 09:45:37;;;;;;;30.08;17.70;;;;;;;2.26;100.00;99586.66;6717529;26;33781;-69
2021/12/06 09:48:43;;;;;;;29.45;15.88;;;;;;;2.35;100.00;99584.06;6697631;26;35179;-69
2021/12/06 09:51:51;;;;;;;28.85;15.50;;;;;;;2.33;100.00;99587.78;6717301;26;33926;-68
2021/12/06 09:54:55;;;;;;;26.37;13.30;;;;;;;2.49;100.00;99593.31;6698223;26;34500;-68
2021/12/06 09:57:58;;;;;;;25.42;14.75;;;;;;;2.56;100.00;99581.34;6717387;26;34692;-68
2021/12/06 10:01:08;;;;;;;25.27;13.07;;;;;;;2.82;100.00;99587.69;6717421;26;33746;-68
2021/12/06 10:04:14;;;;;;;23.90;13.77;;;;;;;3.22;100.00;99582.28;6717209;26;34797;-68
2021/12/06 10:07:18;;;;;;;25.92;13.13;;;;;;;3.44;100.00;99574.09;6717173;26;33986;-69
2021/12/06 10:10:23;;;;;;;20.50;12.48;;;;;;;3.78;100.00;99576.19;6717074;26;35445;-68
2021/12/06 10:13:27;;;;;;;21.08;12.35;;;;;;;3.59;100.00;99574.47;6717371;26;34344;-68
2021/12/06 10:16:31;;;;;;;20.27;11.65;;;;;;;3.49;100.00;99573.66;6717240;26;33836;-69
2021/12/06 10:19:34;;;;;;;18.45;10.80;;;;;;;3.41;100.00;99573.56;6717188;26;34442;-67
2021/12/06 10:22:38;;;;;;;19.20;10.93;;;;;;;3.55;100.00;99561.78;6717247;26;34648;-68
2021/12/06 10:25:45;;;;;;;17.05;10.30;;;;;;;3.49;100.00;99560.56;6717164;26;34566;-69
2021/12/06 10:28:48;;;;;;;18.60;11.27;;;;;;;3.53;100.00;99554.09;6717179;26;34112;-71
2021/12/06 10:31:54;;;;;;;19.37;10.00;;;;;;;3.77;100.00;99557.03;6717526;26;35148;-67
2021/12/06 10:35:02;;;;;;;15.38;9.93;;;;;;;3.87;100.00;99559.59;6696416;26;34710;-67
2021/12/06 10:38:05;;;;;;;18.83;10.05;;;;;;;3.71;100.00;99559.37;6696875;26;34025;-67
2021/12/06 10:41:12;;;;;;;15.93;9.95;;;;;;;3.94;100.00;99563.28;6716890;26;34234;-68
2021/12/06 10:44:15;;;;;;;17.35;10.40;;;;;;;3.99;100.00;99574.19;6695484;26;33855;-68
2021/12/06 10:47:18;;;;;;;15.05;9.98;;;;;;;3.72;100.00;99582.03;6717167;26;34054;-66
2021/12/06 10:50:20;;;;;;;17.25;10.27;;;;;;;3.61;100.00;99598.75;6697681;26;34279;-67
2021/12/06 10:53:38;;;;;;;16.15;10.20;;;;;;;3.66;100.00;99611.44;6723681;26;34524;-66
2021/12/06 10:56:45;;;;;;;15.88;10.02;;;;;;;3.45;100.00;99624.75;6718741;26;34705;-67
2021/12/06 10:59:48;;;;;;;16.67;9.98;;;;;;;3.37;100.00;99619.37;6717044;26;34880;-69
2021/12/06 11:02:51;;;;;;;16.67;10.73;;;;;;;3.33;100.00;99624.09;6716970;26;33814;-67
2021/12/06 11:06:01;;;;;;;18.83;10.55;;;;;;;3.05;100.00;99636.22;6716225;26;34179;-67
2021/12/06 11:09:05;;;;;;;16.53;10.13;;;;;;;3.14;100.00;99634.59;6696656;26;34102;-69
2021/12/06 11:12:09;;;;;;;14.95;8.55;;;;;;;3.11;100.00;99632.22;6696919;26;33948;-68
2021/12/06 11:15:13;;;;;;;15.35;9.32;;;;;;;2.95;100.00;99624.91;6696974;26;34025;-67
2021/12/06 11:18:48;;;;;;;16.98;9.65;;;;;;;3.01;100.00;99627.00;6717123;26;34698;-68
2021/12/06 11:21:58;;;;;;;15.82;10.15;;;;;;;2.91;100.00;99644.50;6716547;26;35134;-67
2021/12/06 11:25:00;;;;;;;19.08;10.13;;;;;;;2.88;100.00;99643.94;6717018;26;33972;-68
2021/12/06 11:28:22;;;;;;;16.73;10.35;;;;;;;2.99;100.00;99663.00;6716846;26;34612;-68
2021/12/06 11:31:25;;;;;;;14.87;9.60;;;;;;;3.01;100.00;99665.47;6716579;26;34483;-69
2021/12/06 11:34:34;;;;;;;15.07;9.82;;;;;;;2.91;100.00;99657.59;6695089;26;34004;-67
2021/12/06 11:37:41;;;;;;;14.95;10.23;;;;;;;2.95;100.00;99666.03;6715863;26;34491;-66
2021/12/06 11:40:44;;;;;;;15.65;9.80;;;;;;;2.99;100.00;99662.16;6716561;26;35392;-67
2021/12/06 11:43:47;;;;;;;14.50;8.73;;;;;;;3.03;100.00;99666.16;6716477;26;34069;-67
2021/12/06 11:47:09;;;;;;;15.85;8.90;;;;;;;3.05;100.00;99662.44;6716518;26;34705;-67
2021/12/06 11:50:12;;;;;;;15.68;9.15;;;;;;;2.98;100.00;99658.72;6716064;26;34084;-68
2021/12/06 11:53:17;;;;;;;15.05;9.10;;;;;;;3.19;100.00;99650.72;6716924;26;33968;-67
2021/12/06 11:56:31;;;;;;;14.98;9.27;;;;;;;3.34;100.00;99659.78;6716647;26;34232;-68
2021/12/06 11:59:43;;;;;;;15.30;9.32;;;;;;;3.32;100.00;99667.00;6696831;26;34127;-68
2021/12/06 12:02:58;;;;;;;14.60;9.75;;;;;;;3.33;100.00;99667.81;6716121;26;34644;-68
2021/12/06 12:06:02;;;;;;;13.75;8.77;;;;;;;3.42;100.00;99665.19;6716898;26;34080;-67
2021/12/06 12:09:20;;;;;;;16.10;7.95;;;;;;;3.38;100.00;99665.63;6716131;26;34792;-68
2021/12/06 12:12:23;;;;;;;13.13;7.53;;;;;;;3.36;100.00;99664.91;6696812;26;33979;-68
2021/12/06 12:15:26;;;;;;;15.00;8.27;;;;;;;3.34;100.00;99656.38;6716478;26;34101;-68
2021/12/06 12:18:30;;;;;;;13.62;8.43;;;;;;;3.48;100.00;99656.78;6716763;26;33934;-67
2021/12/06 12:21:33;;;;;;;13.18;7.78;;;;;;;3.60;100.00;99646.09;6697295;26;34602;-67
2021/12/06 12:24:38;;;;;;;13.48;8.32;;;;;;;3.68;100.00;99631.31;6716623;26;33953;-67
2021/12/06 12:27:51;;;;;;;16.70;7.80;;;;;;;3.75;100.00;99637.66;6716803;26;34419;-68
2021/12/06 12:30:57;;;;;;;13.98;8.20;;;;;;;3.74;100.00;99632.53;6716683;26;34652;-68
2021/12/06 12:34:09;;;;;;;12.85;7.80;;;;;;;3.86;100.00;99624.38;6716540;26;34029;-67
2021/12/06 12:37:14;;;;;;;11.55;6.62;;;;;;;3.91;100.00;99630.03;6677805;26;33374;-67
2021/12/06 12:40:20;;;;;;;13.10;7.57;;;;;;;3.85;100.00;99624.50;6716704;26;34854;-66
2021/12/06 12:43:45;;;;;;;13.45;7.37;;;;;;;3.62;100.00;99631.91;6716396;26;33919;-68
2021/12/06 12:46:50;;;;;;;11.48;6.65;;;;;;;3.69;100.00;99634.75;6716160;26;33838;-67
2021/12/06 12:49:57;;;;;;;11.45;7.53;;;;;;;3.74;100.00;99638.62;6716328;26;34044;-67
2021/12/06 12:53:14;;;;;;;10.38;6.68;;;;;;;3.93;100.00;99630.69;6716129;26;33531;-67
2021/12/06 12:56:23;;;;;;;13.73;7.75;;;;;;;3.91;100.00;99637.88;6716395;26;34663;-67
2021/12/06 12:59:45;;;;;;;10.75;6.85;;;;;;;4.07;100.00;99639.88;6696449;26;34043;-70
2021/12/06 13:02:48;;;;;;;9.63;5.97;;;;;;;4.22;100.00;99645.47;6715753;26;35187;-70
2021/12/06 13:06:14;;;;;;;10.60;6.20;;;;;;;4.12;98.19;99642.91;6716140;26;34015;-70
2021/12/06 13:09:19;;;;;;;9.38;5.75;;;;;;;4.06;99.25;99651.37;6695800;26;33841;-70
2021/12/06 13:12:23;;;;;;;8.30;4.78;;;;;;;4.06;99.14;99655.78;6715456;26;34718;-69
2021/12/06 13:19:33;;;;;;;13.90;5.82;;;;;;;3.90;100.00;99665.09;6709431;26;33838;-69
2021/12/06 13:22:49;;;;;;;10.57;5.72;;;;;;;3.96;99.53;99668.13;6717211;26;34006;-69
2021/12/06 13:26:09;;;;;;;9.48;5.72;;;;;;;3.80;100.00;99661.66;6717101;26;33719;-69
2021/12/06 13:29:15;;;;;;;9.47;5.27;;;;;;;3.77;100.00;99659.34;6717669;26;34449;-69
2021/12/06 13:32:43;;;;;;;10.50;5.68;;;;;;;3.86;100.00;99673.41;6717595;26;34433;-69
2021/12/06 13:35:58;;;;;;;11.63;5.97;;;;;;;3.60;100.00;99670.53;6717457;26;34013;-69
2021/12/06 13:39:02;;;;;;;10.43;5.68;;;;;;;3.70;100.00;99670.53;6716844;26;34762;-69
2021/12/06 13:42:12;;;;;;;10.10;5.85;;;;;;;3.77;100.00;99671.63;6697783;26;34716;-70
2021/12/06 13:45:20;;;;;;;8.57;5.37;;;;;;;3.55;100.00;99669.31;6716272;26;34123;-70
2021/12/06 13:48:34;;;;;;;10.30;5.80;;;;;;;3.59;100.00;99675.91;6716665;26;33866;-70
2021/12/06 13:52:03;;;;;;;11.27;5.70;;;;;;;3.36;100.00;99672.78;6717549;26;34614;-70
2021/12/06 13:55:40;;;;;;;9.98;5.40;;;;;;;3.36;100.00;99678.03;6713468;26;33411;-70
2021/12/06 13:58:43;;;;;;;9.52;5.78;;;;;;;3.25;100.00;99678.16;6697660;26;35045;-69
2021/12/06 14:01:47;;;;;;;8.40;4.68;;;;;;;3.11;100.00;99687.25;6717065;26;34636;-70
2021/12/06 14:04:51;;;;;;;9.35;5.50;;;;;;;3.04;100.00;99686.16;6717695;26;34144;-69
2021/12/06 14:07:54;;;;;;;9.57;4.72;;;;;;;3.05;100.00;99696.50;6717514;26;34953;-69
2021/12/06 14:10:57;;;;;;;7.12;4.50;;;;;;;3.04;100.00;99696.66;6717816;26;34700;-69
2021/12/06 14:14:11;;;;;;;7.87;4.72;;;;;;;2.96;100.00;99696.47;6698203;26;33623;-69
2021/12/06 14:17:16;;;;;;;10.30;4.43;;;;;;;2.93;100.00;99699.38;6717022;26;34198;-69
2021/12/06 14:20:19;;;;;;;7.90;4.53;;;;;;;2.89;100.00;99695.38;6717224;26;33841;-70
2021/12/06 14:23:25;;;;;;;7.30;4.22;;;;;;;2.91;100.00;99711.78;6716957;26;33827;-69
2021/12/06 14:26:33;;;;;;;7.68;4.35;;;;;;;2.85;100.00;99707.09;6715575;26;33930;-69
2021/12/06 14:29:36;;;;;;;9.02;4.87;;;;;;;2.82;100.00;99717.81;6715790;26;33818;-69
2021/12/06 14:32:49;;;;;;;6.82;4.03;;;;;;;2.86;100.00;99719.22;6697064;26;34579;-69
2021/12/06 14:35:51;;;;;;;8.38;4.80;;;;;;;2.79;100.00;99716.31;6716963;26;33805;-70